Ride Results

Southern Cross 2 (26-07-2014)
Ride distance: 80.0 km

Outcomes - Southern Cross 2 (26-07-2014)
Division No. of Entries Retired / DNE Completed Withdrawn Ineligible V/O Percentage Completed
HW 5 - 4 - - 1 80.00%
MW 17 - 14 - - 3 82.35%
LW 11 - 11 - - - 100.00%
JN 3 - 2 - - 1 66.67%
Totals 36 - 31 - - 5 86.11%
Results - Southern Cross 2 (26-07-2014)
No. Rider Horse Place Time Leg Speeds Total
Km/Hr
H/R bpm
Heavyweight
191 Jake Verspaandonk Silverline Jetstream 1 (BC) 6:29:00 11.4, 13.3 12.34 36, 45, 51 (Avg:48)
259 Wendy Lightowler Kalatha Park Shahraz 2 6:53:00 11.9, 11.2 11.62 29, 39, 40 (Avg:39)
255 Julie Lofts Ethereal Park Shadow Dancer 3 7:01:00 11.8, 10.9 11.40 36, 46, 52 (Avg:49)
233H Frank Cullen Chappy 4 7:12:00 11.3, 10.9 11.11 37, 40, 51 (Avg:45)
18 Ken Bradley Summit Park Windsong Lame L2 0:00:00 13.1, 11.5 - 38, 44, 54 (Avg:49)
Middleweight
195 Nikita Verspaandonk Moulin Rouge 1 5:25:00 13.0, 17.0 14.77 42, 48, 56 (Avg:52)
181 Sharee Court Makaveli Soulja 2 5:26:00 15.4, 14.0 14.72 36, 42, 50 (Avg:46)
81 Tarryn Marshall Dara Park Alikhan 2 (BC) 5:26:00 15.4, 14.0 14.72 40, 40, 44 (Avg:42)
756 Clint Cowan Willabee Park Ackwell 4 5:40:00 13.1, 15.1 14.12 42, 42, 56 (Avg:49)
755 Rebecca Jeffrey Tess 5 6:17:00 13.1, 12.3 12.73 58, 42, 52 (Avg:47)
131 Simon Thomas Morundah Just Sharii 6 6:29:00 12.7, 11.9 12.34 30, 44, 55 (Avg:49)
168 Trish VanDonk Eminem Phairow 6 6:29:00 11.4, 13.3 12.34 34, 40, 42 (Avg:41)
219 Caroline Noble Top Fancy Trianna 8 6:35:00 12.3, 11.9 12.15 36, 41, 49 (Avg:45)
160 Jo-Anne Francis Castlebar Corsair 9 6:43:00 11.5, 12.2 11.91 31, 40, 38 (Avg:39)
13 Linda Tanian Castlebar Odyssey 9 6:43:00 11.5, 12.2 11.91 46, 43, 55 (Avg:49)
233 Paul Bryson Alhambra Latiffe 11 6:50:00 12.4, 11.0 11.71 30, 37, 49 (Avg:43)
254 Danielle Griffin Castle Downs Challenge 12 6:53:00 11.9, 11.2 11.62 31, 38, 45 (Avg:41)
759 Georgie Hart Bellarine Rosebud 13 7:15:00 11.0, 11.0 11.03 21, 35, 33 (Avg:34)
274 Lucy Hobson Caracel 13 7:15:00 11.0, 11.0 11.03 33, 40, 46 (Avg:43)
757 Leanne Bone Talismans Destiny Lame L2 0:00:00 11.3, 10.9 - 32, 38, 42 (Avg:40)
253 Kerri Hart Belectra BBP Chantelle Lame L1 0:00:00 13.0 - 31, 40 (Avg:40)
238 Kerri Kingston Mytkyina Lame L1 0:00:00 15.4 - 52, 48 (Avg:48)
Lightweight
263 Shona Chila Leo 1 (BC) 5:14:00 15.4, 15.0 15.29 35, 45, 48 (Avg:46)
63 Pamela Cox Al-Marah Thunder Bay 2 5:26:00 15.4, 14.0 14.72 39, 48, 53 (Avg:50)
91 Kim Noble Menora Moon Dance 3 6:10:00 13.3, 12.6 12.97 45, 40, 48 (Avg:44)
113 Lisa Worden Paro Paramount 4 6:17:00 13.1, 12.3 12.73 28, 52, 52 (Avg:52)
161 Shannon Decker Rocky Point Blue Kyanite 5 6:29:00 12.7, 11.9 12.34 28, 38, 36 (Avg:37)
151 Kasey Thomas Rocky Point Pale Lazulite 5 6:29:00 12.7, 11.9 12.34 35, 46, 50 (Avg:48)
244 Marty Bryson Castlebar Shatan 7 6:50:00 12.4, 11.0 11.71 29, 33, 39 (Avg:36)
61 Lois Sharam Musical Gully Carousel 8 7:01:00 11.8, 10.9 11.40 28, 48, 49 (Avg:48)
114 Helen Spencer Imoan Party Girl 8 7:01:00 11.8, 10.9 11.40 30, 42, 48 (Avg:45)
148 Stevie-lyn Oborne LadyBlaze 10 7:09:00 11.7, 10.7 11.19 44, 46, 52 (Avg:49)
742 Michelle Cranston Kato 11 7:15:00 11.0, 11.0 11.03 36, 43, 51 (Avg:47)
Junior
268 Charlie Chila Poesie de Nemo 1 (BC) 5:14:00 15.4, 15.0 15.29 41, 38, 48 (Avg:43)
279 Kendall Noble Ken U Spot the Difference 2 6:35:00 12.3, 11.9 12.15 42, 42, 49 (Avg:45)
745 Alison Noble Warrawee Naaziq Lame L2 0:00:00 13.3, 12.6 - 47, 46, 46 (Avg:46)